Time;durP1;ratioP1;P1;durP2;ratioP2;P2;SDS_P1;SDS_P2;PMS_P1;PMS_P2;Temp;Humidity;BMP_temperature;BMP_pressure;BME280_temperature;BME280_humidity;BME280_pressure;Samples;Min_cycle;Max_cycle;Signal;HPM_P1;HPM_P2
2021/04/30 00:02:24;;;;;;;;;16.00;13.75;;;;;25.20;71.86;99063.13;4977101;28;8832;-79
2021/04/30 00:04:52;;;;;;;;;12.75;12.75;;;;;25.19;70.11;99060.78;4994545;28;8860;-79
2021/04/30 00:07:20;;;;;;;;;10.75;10.75;;;;;25.22;70.38;99076.28;4994738;28;8828;-77
2021/04/30 00:09:49;;;;;;;;;11.75;11.25;;;;;25.23;70.19;99078.63;4992288;28;8918;-76
2021/04/30 00:12:17;;;;;;;;;12.50;11.25;;;;;25.22;70.57;99077.06;4991712;28;8876;-77
2021/04/30 00:14:47;;;;;;;;;15.75;13.50;;;;;25.26;70.07;99077.13;4993490;28;8930;-79
2021/04/30 00:17:15;;;;;;;;;20.50;16.50;;;;;25.30;70.35;99084.16;4989145;28;8867;-80
2021/04/30 00:19:44;;;;;;;;;10.75;10.75;;;;;25.33;71.31;99094.25;4973074;28;8858;-79
2021/04/30 00:22:12;;;;;;;;;17.00;17.00;;;;;25.34;72.35;99092.34;4993039;28;9612;-78
2021/04/30 00:24:40;;;;;;;;;24.67;21.00;;;;;25.35;70.42;99097.38;4992483;28;9009;-76
2021/04/30 00:27:08;;;;;;;;;16.50;15.50;;;;;25.35;71.02;99091.97;4975448;28;9317;-75
2021/04/30 00:29:37;;;;;;;;;18.33;18.33;;;;;25.35;70.19;99099.28;4992769;28;8836;-76
2021/04/30 00:32:06;;;;;;;;;19.33;16.67;;;;;25.40;70.65;99107.13;4989438;28;9110;-75
2021/04/30 00:34:35;;;;;;;;;20.00;15.50;;;;;25.42;70.26;99112.16;4972870;28;8952;-76
2021/04/30 00:37:03;;;;;;;;;16.00;13.75;;;;;25.42;70.04;99107.53;4976257;28;8982;-77
2021/04/30 00:39:34;;;;;;;;;14.50;12.75;;;;;25.46;69.98;99105.69;4990998;28;9648;-77
2021/04/30 00:42:03;;;;;;;;;14.25;12.50;;;;;25.47;69.61;99111.88;4977958;28;8854;-80
2021/04/30 00:44:33;;;;;;;;;28.67;27.00;;;;;25.46;69.64;99111.09;4990925;28;8919;-81
2021/04/30 00:47:02;;;;;;;;;41.50;36.25;;;;;25.51;69.34;99118.13;4993654;28;9228;-80
2021/04/30 00:49:30;;;;;;;;;15.25;15.25;;;;;25.57;69.35;99122.88;4990512;28;10082;-80
2021/04/30 00:52:01;;;;;;;;;16.50;14.25;;;;;25.55;69.09;99110.88;4969865;28;9000;-85
2021/04/30 00:54:34;;;;;;;;;9.75;9.75;;;;;25.61;69.24;99123.72;4971619;28;8940;-84
2021/04/30 00:57:04;;;;;;;;;13.00;13.00;;;;;25.64;69.14;99131.16;4984405;28;8936;-81
2021/04/30 00:59:33;;;;;;;;;15.75;12.00;;;;;25.63;68.86;99132.25;4983364;28;8861;-79
2021/04/30 01:02:01;;;;;;;;;12.00;12.00;;;;;25.67;70.38;99148.56;4984894;28;8891;-83
2021/04/30 01:04:30;;;;;;;;;11.75;11.75;;;;;25.70;68.96;99150.56;4967153;28;8858;-78
2021/04/30 01:06:58;;;;;;;;;12.00;10.75;;;;;25.72;69.10;99158.31;4965064;28;8896;-76
2021/04/30 01:09:27;;;;;;;;;10.00;8.75;;;;;25.73;68.75;99155.25;4953171;28;8868;-78
2021/04/30 01:11:57;;;;;;;;;11.00;10.75;;;;;25.72;68.98;99159.09;4970051;28;9728;-76
2021/04/30 01:14:25;;;;;;;;;10.50;9.00;;;;;25.74;69.04;99164.91;4974119;28;8920;-77
2021/04/30 01:16:54;;;;;;;;;10.00;10.00;;;;;25.75;68.56;99163.78;4973710;28;8915;-81
2021/04/30 01:19:25;;;;;;;;;9.25;8.75;;;;;25.69;68.85;99159.81;4972489;28;8976;-76
2021/04/30 01:21:55;;;;;;;;;8.00;7.00;;;;;25.80;69.68;99177.00;4968178;28;8908;-76
2021/04/30 01:24:24;;;;;;;;;8.75;7.00;;;;;25.82;68.66;99180.13;4983200;28;8872;-79
2021/04/30 01:26:54;;;;;;;;;6.25;6.25;;;;;25.81;68.72;99175.88;4979484;28;8849;-76
2021/04/30 01:29:23;;;;;;;;;11.50;7.25;;;;;25.83;68.40;99179.00;4974479;28;9679;-76
2021/04/30 01:31:52;;;;;;;;;8.75;8.00;;;;;25.88;68.76;99173.28;4973555;28;9917;-75
2021/04/30 01:34:20;;;;;;;;;8.50;8.50;;;;;25.90;68.95;99176.41;4970785;28;8873;-76
2021/04/30 01:36:49;;;;;;;;;8.75;7.50;;;;;25.94;68.54;99179.97;4973366;28;8858;-75
2021/04/30 01:39:18;;;;;;;;;3.00;3.00;;;;;25.99;68.62;99176.19;4971557;28;8871;-76
2021/04/30 01:41:46;;;;;;;;;5.75;5.75;;;;;26.02;68.34;99178.16;4970292;28;8877;-76
2021/04/30 01:44:17;;;;;;;;;7.75;7.00;;;;;26.05;68.79;99176.66;4974147;28;8861;-75
2021/04/30 01:46:45;;;;;;;;;7.00;7.00;;;;;26.13;69.79;99186.44;4970420;28;9576;-76
2021/04/30 01:49:14;;;;;;;;;6.25;6.25;;;;;26.19;69.49;99185.03;4973153;28;9610;-77
2021/04/30 01:51:42;;;;;;;;;7.25;6.50;;;;;26.22;68.28;99185.09;4981339;28;9684;-76
2021/04/30 01:54:11;;;;;;;;;6.25;6.25;;;;;26.25;67.99;99192.47;4991586;28;8990;-74
2021/04/30 01:56:40;;;;;;;;;6.00;6.00;;;;;26.28;68.63;99189.06;4993522;28;8833;-74
2021/04/30 01:59:08;;;;;;;;;5.50;5.50;;;;;26.32;67.30;99189.94;4992773;28;9608;-75
2021/04/30 02:01:36;;;;;;;;;6.25;6.25;;;;;26.31;68.02;99174.84;4993838;28;8840;-76
2021/04/30 02:04:10;;;;;;;;;3.50;3.50;;;;;26.35;69.19;99174.13;4993093;28;8839;-76
2021/04/30 02:06:40;;;;;;;;;3.50;3.50;;;;;26.48;68.86;99187.09;4993609;28;8955;-76
2021/04/30 02:09:09;;;;;;;;;6.00;6.00;;;;;26.54;68.54;99187.56;4990076;28;8850;-75
2021/04/30 02:11:37;;;;;;;;;4.75;4.25;;;;;26.59;68.51;99188.06;4992555;28;8910;-76
2021/04/30 02:14:06;;;;;;;;;7.00;7.00;;;;;26.70;68.15;99190.94;4992232;28;8858;-77
2021/04/30 02:16:35;;;;;;;;;3.25;3.25;;;;;26.79;67.81;99188.75;4986781;28;9574;-76
2021/04/30 02:19:03;;;;;;;;;3.75;3.75;;;;;26.84;67.29;99179.53;4992244;28;8871;-76
2021/04/30 02:21:32;;;;;;;;;5.25;5.25;;;;;26.92;67.31;99189.31;4992744;28;8852;-76
2021/04/30 02:24:00;;;;;;;;;4.50;4.50;;;;;26.93;67.01;99191.66;4991699;28;8856;-74
2021/04/30 02:26:29;;;;;;;;;5.25;5.25;;;;;26.98;67.12;99187.13;4988877;28;8923;-75
2021/04/30 02:28:57;;;;;;;;;5.00;5.00;;;;;27.03;66.85;99190.28;4991709;28;8844;-79
2021/04/30 02:31:26;;;;;;;;;5.50;5.50;;;;;27.08;66.85;99192.69;4974137;28;8832;-75
2021/04/30 02:33:54;;;;;;;;;4.75;4.75;;;;;27.08;66.30;99189.19;4990599;28;8863;-77
2021/04/30 02:36:23;;;;;;;;;2.75;2.75;;;;;27.11;66.25;99191.97;4991253;28;8854;-77
2021/04/30 02:38:51;;;;;;;;;2.50;2.50;;;;;27.14;65.60;99193.16;4989184;28;8855;-77
2021/04/30 02:41:19;;;;;;;;;3.50;3.50;;;;;27.17;66.49;99190.50;4990661;28;8832;-80
2021/04/30 02:43:50;;;;;;;;;3.75;3.75;;;;;27.23;66.43;99186.31;4988967;28;8941;-76
2021/04/30 02:46:18;;;;;;;;;5.25;5.25;;;;;27.29;65.86;99187.56;4991238;28;8926;-74
2021/04/30 02:48:48;;;;;;;;;4.75;4.75;;;;;27.29;66.16;99179.44;4990305;28;8956;-75
2021/04/30 02:51:17;;;;;;;;;4.00;4.00;;;;;27.33;66.31;99175.97;4990808;28;8863;-75
2021/04/30 02:53:45;;;;;;;;;6.75;5.25;;;;;27.45;66.35;99190.06;4979781;28;8868;-74
2021/04/30 02:56:13;;;;;;;;;4.00;4.00;;;;;27.52;66.05;99190.16;4990092;28;8872;-76
2021/04/30 02:58:41;;;;;;;;;3.75;3.75;;;;;27.61;65.97;99189.91;4990836;28;8864;-76
2021/04/30 03:01:10;;;;;;;;;4.25;4.25;;;;;27.66;65.26;99184.16;4988353;28;8829;-73
2021/04/30 03:03:38;;;;;;;;;3.25;3.25;;;;;27.68;65.39;99186.47;4990076;28;8867;-74
2021/04/30 03:06:06;;;;;;;;;3.75;3.75;;;;;27.74;65.92;99191.22;4991513;28;8867;-74
2021/04/30 03:08:34;;;;;;;;;4.50;4.50;;;;;27.82;65.59;99183.94;4991748;28;8848;-74
2021/04/30 03:11:03;;;;;;;;;3.75;3.75;;;;;27.86;65.18;99182.03;4992628;28;8860;-74
2021/04/30 03:13:31;;;;;;;;;5.25;5.25;;;;;27.96;65.07;99180.59;4992431;28;8913;-75
2021/04/30 03:15:59;;;;;;;;;4.75;4.75;;;;;28.01;64.70;99186.47;4992409;28;8921;-74
2021/04/30 03:18:28;;;;;;;;;3.75;3.00;;;;;28.10;65.51;99183.44;4992516;28;8833;-74
2021/04/30 03:20:56;;;;;;;;;2.25;2.25;;;;;28.12;65.42;99187.34;4992261;28;8840;-74
2021/04/30 03:23:24;;;;;;;;;2.00;2.00;;;;;28.11;64.19;99180.38;4992539;28;8847;-74
2021/04/30 03:25:52;;;;;;;;;2.75;2.75;;;;;28.10;64.63;99169.88;4992504;28;8858;-74
2021/04/30 03:28:20;;;;;;;;;2.50;2.50;;;;;28.17;63.93;99176.16;4992226;28;8887;-75
2021/04/30 03:30:48;;;;;;;;;3.00;3.00;;;;;28.23;64.63;99171.22;4992616;28;8844;-75
2021/04/30 03:33:16;;;;;;;;;3.50;3.50;;;;;28.25;65.14;99164.25;4992239;28;8898;-75
2021/04/30 03:35:44;;;;;;;;;3.75;3.75;;;;;28.33;63.89;99172.47;4992445;28;9636;-75
2021/04/30 03:38:12;;;;;;;;;2.00;2.00;;;;;28.34;63.85;99168.59;4991794;28;8934;-74
2021/04/30 03:40:40;;;;;;;;;4.00;4.00;;;;;28.38;64.10;99172.88;4992439;28;8844;-75
2021/04/30 03:43:08;;;;;;;;;3.00;3.00;;;;;28.43;64.74;99167.13;4992274;28;8926;-73
2021/04/30 03:45:37;;;;;;;;;3.00;3.00;;;;;28.45;63.65;99169.47;4992245;28;8832;-73
2021/04/30 03:48:05;;;;;;;;;3.75;3.75;;;;;28.44;63.90;99167.91;4992560;28;9623;-74
2021/04/30 03:50:33;;;;;;;;;3.25;3.25;;;;;28.43;63.07;99167.13;4989882;28;8868;-74
2021/04/30 03:53:02;;;;;;;;;2.50;2.50;;;;;28.42;63.92;99159.34;4990910;28;8876;-71
2021/04/30 03:55:30;;;;;;;;;0.00;0.00;;;;;28.45;63.42;99172.16;4991262;28;9578;-76
2021/04/30 03:57:58;;;;;;;;;4.00;4.00;;;;;28.41;63.99;99152.38;4990844;28;8902;-75
2021/04/30 04:00:27;;;;;;;;;4.00;4.00;;;;;28.45;64.40;99155.88;4990816;28;8848;-75
2021/04/30 04:02:55;;;;;;;;;3.50;3.50;;;;;28.49;63.70;99159.41;4990840;28;8844;-75
2021/04/30 04:05:23;;;;;;;;;4.00;4.00;;;;;28.51;64.35;99151.66;4991044;28;9022;-76
2021/04/30 04:07:52;;;;;;;;;2.25;2.25;;;;;28.56;62.75;99156.75;4991026;28;9243;-75
2021/04/30 04:10:20;;;;;;;;;2.50;2.50;;;;;28.60;63.93;99154.06;4990834;28;9643;-74
2021/04/30 04:12:48;;;;;;;;;3.00;3.00;;;;;28.65;63.76;99148.25;4990974;28;8840;-74
2021/04/30 04:15:16;;;;;;;;;2.50;2.50;;;;;28.68;63.51;99156.41;4993526;28;8856;-75
2021/04/30 04:17:45;;;;;;;;;2.75;2.75;;;;;28.70;64.13;99150.63;4994576;28;8892;-74
2021/04/30 04:20:13;;;;;;;;;2.75;2.75;;;;;28.68;63.11;99139.34;4994907;28;8876;-73
2021/04/30 04:22:42;;;;;;;;;3.00;3.00;;;;;28.76;63.31;99144.47;4995882;28;9585;-73
2021/04/30 04:25:10;;;;;;;;;2.75;2.75;;;;;28.81;63.40;99143.31;4995347;28;9593;-73
2021/04/30 04:27:38;;;;;;;;;2.25;2.25;;;;;28.82;63.50;99123.97;4995799;28;8832;-73
2021/04/30 04:30:10;;;;;;;;;2.75;2.75;;;;;28.90;63.08;99133.72;4995441;28;8835;-73
2021/04/30 04:32:40;;;;;;;;;2.50;2.50;;;;;28.89;62.83;99136.81;4995457;28;8851;-73
2021/04/30 04:35:09;;;;;;;;;2.75;2.75;;;;;28.85;63.03;99128.63;4995135;28;8844;-73
2021/04/30 04:37:37;;;;;;;;;3.50;3.50;;;;;28.80;62.72;99120.03;4995322;28;8856;-73
2021/04/30 04:40:06;;;;;;;;;4.00;4.00;;;;;28.82;61.80;99125.88;4995444;28;8867;-73
2021/04/30 04:42:34;;;;;;;;;2.75;2.75;;;;;28.81;63.32;99119.66;4995205;28;8875;-73
2021/04/30 04:45:04;;;;;;;;;3.75;3.25;;;;;28.81;62.77;99113.44;4995257;28;8862;-73
2021/04/30 04:47:32;;;;;;;;;1.50;1.50;;;;;28.86;63.41;99110.41;4995140;28;8921;-73
2021/04/30 04:50:00;;;;;;;;;3.00;3.00;;;;;28.88;63.66;99108.88;4995022;28;9573;-73
2021/04/30 04:52:29;;;;;;;;;2.75;2.75;;;;;28.89;62.84;99106.94;4994857;28;8855;-73
2021/04/30 04:54:57;;;;;;;;;2.50;2.50;;;;;28.86;62.08;99100.31;4994921;28;8844;-73
2021/04/30 04:57:25;;;;;;;;;2.00;2.00;;;;;28.93;61.61;99088.72;4995036;28;8859;-73
2021/04/30 04:59:53;;;;;;;;;2.50;2.50;;;;;28.98;62.02;99090.28;4995590;28;8864;-73
2021/04/30 05:02:21;;;;;;;;;2.75;2.75;;;;;29.01;61.12;99084.09;4994836;28;8848;-73
2021/04/30 05:04:50;;;;;;;;;2.75;2.75;;;;;29.04;62.86;99086.84;4995474;28;8875;-74
2021/04/30 05:07:19;;;;;;;;;2.00;2.00;;;;;29.13;62.78;99083.78;4994741;28;8926;-74
2021/04/30 05:09:47;;;;;;;;;3.50;3.50;;;;;29.17;62.11;99085.34;4977592;28;8843;-74
2021/04/30 05:12:16;;;;;;;;;2.50;2.50;;;;;29.16;60.76;99077.56;4994727;28;8832;-73
2021/04/30 05:14:44;;;;;;;;;2.75;2.75;;;;;29.18;59.73;99078.75;4994525;28;8866;-74
2021/04/30 05:17:13;;;;;;;;;2.75;2.75;;;;;29.25;60.51;99066.34;4994539;28;8908;-74
2021/04/30 05:19:41;;;;;;;;;2.00;2.00;;;;;29.35;59.75;99060.16;4994852;28;8836;-74
2021/04/30 05:22:11;;;;;;;;;2.75;2.75;;;;;29.41;59.88;99053.97;4994491;28;8851;-74
2021/04/30 05:24:44;;;;;;;;;1.50;1.50;;;;;29.58;60.27;99057.13;4994375;28;8932;-74
2021/04/30 05:27:13;;;;;;;;;2.50;2.50;;;;;29.68;59.75;99059.09;4993622;28;8860;-74
2021/04/30 05:29:43;;;;;;;;;2.75;2.75;;;;;29.68;59.76;99046.28;4994600;28;8840;-74
2021/04/30 05:32:13;;;;;;;;;4.00;4.00;;;;;29.85;59.14;99050.97;4993633;28;8860;-73
2021/04/30 05:34:42;;;;;;;;;2.25;2.25;;;;;29.94;60.24;99038.88;4992595;28;8877;-73
2021/04/30 05:37:10;;;;;;;;;3.75;3.75;;;;;30.00;59.56;99035.41;4995392;28;8840;-72
2021/04/30 05:39:38;;;;;;;;;3.50;2.50;;;;;30.07;60.64;99027.25;4994146;28;8844;-72
2021/04/30 05:42:07;;;;;;;;;2.75;2.75;;;;;30.09;58.75;99018.69;4993574;28;9593;-75
2021/04/30 05:44:36;;;;;;;;;3.75;3.75;;;;;30.10;59.02;99015.59;4995092;28;9593;-77
2021/04/30 05:47:04;;;;;;;;;3.75;3.75;;;;;30.07;59.01;99004.72;4994583;28;8870;-76
2021/04/30 05:49:32;;;;;;;;;3.00;3.00;;;;;30.20;59.28;99011.31;4994884;28;8855;-81
2021/04/30 05:52:01;;;;;;;;;4.00;4.00;;;;;30.21;58.40;99004.69;5000486;28;9333;-77
2021/04/30 05:54:31;;;;;;;;;3.00;3.00;;;;;30.25;58.92;99005.47;4999827;28;9597;-80
2021/04/30 05:57:01;;;;;;;;;2.75;2.75;;;;;30.29;58.32;99006.22;4988448;28;8846;-84
2021/04/30 05:59:30;;;;;;;;;2.00;2.00;;;;;30.33;57.82;98998.84;4984756;28;8828;-74
2021/04/30 06:02:00;;;;;;;;;4.75;4.75;;;;;30.36;58.01;98989.13;4985113;28;8856;-78
2021/04/30 06:04:29;;;;;;;;;2.50;2.50;;;;;30.40;58.78;98979.75;4982931;28;8860;-79
2021/04/30 06:06:57;;;;;;;;;2.00;2.00;;;;;30.41;59.68;98966.94;4983535;28;8867;-79
2021/04/30 06:09:26;;;;;;;;;2.50;2.50;;;;;30.37;59.27;98969.66;4992367;28;8846;-76
2021/04/30 06:11:54;;;;;;;;;1.75;1.75;;;;;30.34;61.11;98959.56;4982865;28;8850;-80
2021/04/30 06:14:29;;;;;;;;;2.00;2.00;;;;;30.25;59.42;98950.25;4964327;28;8828;-72
2021/04/30 06:16:57;;;;;;;;;2.75;2.75;;;;;30.12;59.00;98928.91;4964437;28;8909;-74
2021/04/30 06:19:26;;;;;;;;;2.75;2.75;;;;;30.22;59.42;98940.16;4985082;28;8859;-79
2021/04/30 06:21:54;;;;;;;;;3.00;3.00;;;;;30.34;60.31;98937.03;4984476;28;8983;-74
2021/04/30 06:24:23;;;;;;;;;2.50;2.50;;;;;30.43;60.50;98931.94;4981320;28;8838;-73
2021/04/30 06:26:52;;;;;;;;;3.50;3.50;;;;;30.46;59.76;98925.69;4973589;28;8857;-73
2021/04/30 06:29:20;;;;;;;;;2.25;2.25;;;;;30.40;58.61;98911.72;4973695;28;8932;-75
2021/04/30 06:31:48;;;;;;;;;2.20;2.20;;;;;30.45;59.57;98921.44;4978408;28;8862;-76
2021/04/30 06:34:16;;;;;;;;;4.00;4.00;;;;;30.41;60.32;98907.06;4981917;28;8942;-75
2021/04/30 06:36:45;;;;;;;;;6.00;6.00;;;;;30.38;58.49;98905.91;4979202;28;8852;-74
2021/04/30 06:39:13;;;;;;;;;3.75;3.75;;;;;30.32;57.77;98902.03;4991309;28;8852;-74
2021/04/30 06:41:41;;;;;;;;;2.75;2.75;;;;;30.38;59.55;98900.44;4991292;28;8848;-76
2021/04/30 06:44:09;;;;;;;;;5.00;5.00;;;;;30.50;58.34;98893.78;4991576;28;8859;-77
2021/04/30 06:46:38;;;;;;;;;4.75;4.75;;;;;30.63;57.59;98892.19;4975048;28;8840;-80
2021/04/30 06:49:06;;;;;;;;;0.00;0.00;;;;;30.81;56.76;98889.38;4994272;28;8836;-79
2021/04/30 06:51:35;;;;;;;;;1.00;1.00;;;;;30.95;56.38;98878.41;4993310;28;8867;-76
2021/04/30 06:54:04;;;;;;;;;3.50;3.50;;;;;31.11;59.38;98867.00;4994203;28;8832;-77
2021/04/30 06:56:34;;;;;;;;;3.75;3.75;;;;;31.30;59.63;98871.91;4995398;28;8863;-79
2021/04/30 06:59:02;;;;;;;;;2.75;2.75;;;;;31.29;57.78;98862.19;4977759;28;8843;-79
2021/04/30 07:01:30;;;;;;;;;3.60;3.60;;;;;31.33;58.27;98862.16;4994374;28;8828;-80
2021/04/30 07:03:58;;;;;;;;;4.00;4.00;;;;;31.27;58.56;98858.31;4995744;28;8847;-76
2021/04/30 07:06:27;;;;;;;;;4.00;4.00;;;;;31.32;58.77;98857.88;4992965;28;8840;-78
2021/04/30 07:09:04;;;;;;;;;3.60;3.60;;;;;31.21;58.35;98847.06;4997530;28;8851;-77
2021/04/30 07:11:32;;;;;;;;;3.40;3.40;;;;;31.20;57.52;98850.22;4998768;28;8864;-77
2021/04/30 07:14:04;;;;;;;;;1.60;1.60;;;;;31.12;58.13;98841.28;4996885;28;8855;-76
2021/04/30 07:16:33;;;;;;;;;4.25;4.25;;;;;31.08;58.50;98840.56;4976523;28;8836;-82
2021/04/30 07:19:02;;;;;;;;;3.25;3.25;;;;;30.95;57.40;98829.34;4992752;28;8871;-82
2021/04/30 07:21:29;;;;;;;;;4.20;4.20;;;;;30.99;57.01;98832.84;4992728;28;8866;-82
2021/04/30 07:23:58;;;;;;;;;3.60;3.60;;;;;31.10;56.30;98830.81;4992938;28;8832;-78
2021/04/30 07:26:26;;;;;;;;;4.00;4.00;;;;;31.27;56.10;98825.59;4988420;28;8867;-81
2021/04/30 07:28:57;;;;;;;;;3.60;3.60;;;;;31.45;57.31;98809.84;4980326;28;8866;-74
2021/04/30 07:31:26;;;;;;;;;4.00;4.00;;;;;31.67;54.55;98811.19;4980630;28;8840;-74
2021/04/30 07:33:54;;;;;;;;;3.80;3.80;;;;;31.85;54.75;98810.25;4988723;28;8852;-76
2021/04/30 07:36:22;;;;;;;;;3.40;3.40;;;;;31.95;55.16;98807.38;4990491;28;8914;-75
2021/04/30 07:38:50;;;;;;;;;4.00;4.00;;;;;31.98;56.81;98811.25;4989611;28;9013;-75
2021/04/30 07:41:18;;;;;;;;;2.80;2.80;;;;;31.94;55.30;98807.78;4984869;28;8842;-77
2021/04/30 07:43:46;;;;;;;;;3.00;3.00;;;;;31.83;56.61;98798.97;4979984;28;8842;-77
2021/04/30 07:46:15;;;;;;;;;2.80;2.80;;;;;31.68;55.86;98801.03;4981513;28;8922;-81
2021/04/30 07:48:44;;;;;;;;;3.80;3.80;;;;;31.57;56.68;98787.53;4982083;28;8842;-80
2021/04/30 07:51:12;;;;;;;;;3.60;3.60;;;;;31.44;56.21;98784.53;4983925;28;8845;-78
2021/04/30 07:53:41;;;;;;;;;2.80;2.80;;;;;31.29;55.66;98785.09;4986583;28;8832;-78
2021/04/30 07:56:09;;;;;;;;;1.20;1.20;;;;;31.19;55.59;98778.59;4985933;28;8867;-76
2021/04/30 07:58:38;;;;;;;;;3.80;3.80;;;;;31.03;56.14;98773.66;4985416;28;8846;-81
2021/04/30 08:01:06;;;;;;;;;2.40;2.40;;;;;31.07;56.01;98768.16;4989387;28;8842;-80
2021/04/30 08:03:34;;;;;;;;;4.75;4.75;;;;;31.08;54.07;98765.03;4970997;28;8862;-83
2021/04/30 08:06:02;;;;;;;;;3.60;3.60;;;;;31.12;55.79;98752.16;4983093;28;8844;-79
2021/04/30 08:08:30;;;;;;;;;4.00;4.00;;;;;31.26;55.41;98745.00;4985412;28;8944;-81
2021/04/30 08:10:58;;;;;;;;;3.00;3.00;;;;;31.45;54.65;98737.03;4984437;28;9614;-79
2021/04/30 08:13:31;;;;;;;;;3.00;3.00;;;;;31.63;57.79;98734.09;4986636;28;8881;-82
2021/04/30 08:15:59;;;;;;;;;2.60;2.60;;;;;31.63;56.27;98725.91;4986159;28;8850;-82
2021/04/30 08:18:27;;;;;;;;;2.80;2.80;;;;;31.50;55.09;98718.66;4984800;28;8846;-80
2021/04/30 08:20:56;;;;;;;;;3.00;3.00;;;;;31.42;55.60;98728.88;4989005;28;8983;-79
2021/04/30 08:23:24;;;;;;;;;3.60;3.60;;;;;31.36;55.78;98731.28;4967664;28;8858;-77
2021/04/30 08:25:52;;;;;;;;;4.20;4.20;;;;;31.25;56.39;98716.22;4981156;28;8822;-78
2021/04/30 08:28:20;;;;;;;;;3.60;3.60;;;;;31.19;57.76;98715.91;4986462;28;8859;-79
2021/04/30 08:30:48;;;;;;;;;1.20;1.20;;;;;31.07;57.79;98716.41;4984478;28;8830;-80
2021/04/30 08:33:16;;;;;;;;;5.80;5.80;;;;;30.92;57.32;98712.25;4985117;28;8848;-77
2021/04/30 08:35:44;;;;;;;;;4.75;4.75;;;;;30.84;57.05;98714.28;4984962;28;8874;-80
2021/04/30 08:38:13;;;;;;;;;4.20;4.20;;;;;30.79;58.18;98715.47;4978401;28;8857;-80
2021/04/30 08:40:41;;;;;;;;;5.50;5.50;;;;;30.72;56.93;98709.31;4983689;28;9012;-81
2021/04/30 08:43:09;;;;;;;;;3.80;3.80;;;;;30.63;56.76;98704.34;4983441;28;8932;-79
2021/04/30 08:45:40;;;;;;;;;5.40;5.40;;;;;30.62;58.18;98704.72;4981961;28;8838;-79
2021/04/30 08:48:11;;;;;;;;;0.60;0.60;;;;;30.62;58.81;98716.41;4983989;28;8851;-80
2021/04/30 08:50:39;;;;;;;;;3.20;3.20;;;;;30.61;56.70;98703.97;4982831;28;8916;-78
2021/04/30 08:53:07;;;;;;;;;3.75;3.75;;;;;30.63;58.30;98696.16;4986358;28;8851;-78
2021/04/30 08:55:36;;;;;;;;;4.60;4.60;;;;;30.84;57.61;98706.09;4982751;28;8860;-79
2021/04/30 08:58:07;;;;;;;;;3.60;3.60;;;;;30.91;56.77;98705.25;4987744;28;8868;-79
2021/04/30 09:00:36;;;;;;;;;3.80;3.80;;;;;31.02;56.00;98706.72;4992058;28;9611;-77
2021/04/30 09:03:10;;;;;;;;;4.00;4.00;;;;;31.12;56.39;98705.84;4993975;28;8868;-82
2021/04/30 09:05:47;;;;;;;;;4.20;4.20;;;;;31.20;56.78;98709.28;4993229;28;8856;-79
2021/04/30 09:08:17;;;;;;;;;3.40;3.40;;;;;31.14;57.51;98698.06;4994580;28;8852;-79
2021/04/30 09:11:05;;;;;;;;;2.80;2.80;;;;;31.18;55.60;98708.91;4997153;28;8859;-81
2021/04/30 09:13:33;;;;;;;;;5.00;5.00;;;;;31.19;54.18;98705.00;4992020;28;8864;-78
2021/04/30 09:16:06;;;;;;;;;4.00;4.00;;;;;31.28;54.72;98701.78;4986112;28;8860;-83
2021/04/30 09:18:34;;;;;;;;;4.25;4.25;;;;;31.42;54.78;98702.41;4983624;28;8886;-82
2021/04/30 09:21:09;;;;;;;;;4.20;4.20;;;;;31.58;55.09;98710.00;4984952;28;8843;-78
2021/04/30 09:23:43;;;;;;;;;4.00;4.00;;;;;31.70;55.00;98701.31;4981848;28;8832;-79
2021/04/30 09:26:29;;;;;;;;;4.60;4.60;;;;;31.78;54.83;98702.00;4981753;28;8824;-81
2021/04/30 09:29:13;;;;;;;;;5.00;5.00;;;;;31.81;53.73;98698.44;4975198;28;8830;-78
2021/04/30 09:31:43;;;;;;;;;3.80;3.80;;;;;31.84;55.58;98694.91;4979547;28;8828;-82
2021/04/30 09:34:26;;;;;;;;;3.80;3.80;;;;;31.81;55.11;98695.72;4985056;28;8852;-81
2021/04/30 09:37:16;;;;;;;;;6.40;6.40;;;;;31.72;55.16;98693.50;4967482;28;8859;-80
2021/04/30 09:39:58;;;;;;;;;5.00;5.00;;;;;31.61;54.81;98689.31;4979549;28;8901;-80
2021/04/30 09:42:32;;;;;;;;;5.00;5.00;;;;;31.54;55.64;98692.13;4979142;28;8846;-80
2021/04/30 09:45:05;;;;;;;;;4.00;4.00;;;;;31.48;56.13;98689.09;4984405;28;8824;-79
2021/04/30 09:47:36;;;;;;;;;4.60;4.60;;;;;31.39;55.28;98688.81;4990070;28;8908;-82
2021/04/30 09:50:09;;;;;;;;;3.60;3.60;;;;;31.26;54.90;98696.72;4991568;28;8858;-78
2021/04/30 09:52:52;;;;;;;;;4.00;4.00;;;;;31.27;55.32;98700.22;4985440;28;8832;-80
2021/04/30 09:55:20;;;;;;;;;3.00;3.00;;;;;31.25;55.71;98695.19;4988385;28;8844;-80
2021/04/30 09:57:49;;;;;;;;;4.00;4.00;;;;;31.24;55.44;98692.88;4989222;28;8882;-77
2021/04/30 10:00:18;;;;;;;;;4.40;4.40;;;;;31.27;56.17;98698.28;4990412;28;8958;-75
2021/04/30 10:02:47;;;;;;;;;3.25;3.25;;;;;31.28;54.91;98696.31;4990304;28;8844;-78
2021/04/30 10:05:19;;;;;;;;;5.00;5.00;;;;;31.21;55.16;98693.69;4990806;28;8926;-79
2021/04/30 10:08:19;;;;;;;;;5.75;5.75;;;;;31.30;55.84;98704.88;4989171;28;8926;-78
2021/04/30 10:10:47;;;;;;;;;4.40;4.40;;;;;31.25;55.50;98697.13;4988047;28;8864;-77
2021/04/30 10:13:36;;;;;;;;;4.00;4.00;;;;;31.19;56.47;98701.50;4991707;28;8832;-77
2021/04/30 10:16:05;;;;;;;;;4.00;4.00;;;;;31.07;56.57;98700.03;4992212;28;8955;-78
2021/04/30 10:18:33;;;;;;;;;4.75;4.75;;;;;30.99;56.11;98693.13;4981018;28;8908;-78
2021/04/30 10:21:03;;;;;;;;;5.00;5.00;;;;;30.89;56.31;98702.94;4975822;28;8828;-76
2021/04/30 10:23:32;;;;;;;;;3.75;3.75;;;;;30.75;55.93;98692.94;4989698;28;8887;-82
2021/04/30 10:26:04;;;;;;;;;4.00;4.00;;;;;30.68;55.06;98690.28;4976260;28;8928;-82
2021/04/30 10:28:33;;;;;;;;;3.50;3.50;;;;;30.66;55.05;98708.97;4990346;28;8847;-82
2021/04/30 10:31:12;;;;;;;;;3.75;3.75;;;;;30.63;55.49;98709.78;4991846;28;8836;-81
2021/04/30 10:34:07;;;;;;;;;5.00;5.00;;;;;30.65;55.78;98710.16;4991174;28;8836;-83
2021/04/30 10:36:42;;;;;;;;;3.50;3.50;;;;;30.62;56.76;98710.19;4988934;28;8863;-78
2021/04/30 10:39:24;;;;;;;;;3.50;3.50;;;;;30.50;55.34;98712.19;4989304;28;8828;-77
2021/04/30 10:41:53;;;;;;;;;5.25;5.25;;;;;30.48;55.96;98719.97;4991271;28;8844;-80
2021/04/30 10:44:29;;;;;;;;;4.50;4.50;;;;;30.40;56.33;98715.75;4991083;28;8879;-78
2021/04/30 10:47:25;;;;;;;;;4.00;4.00;;;;;30.39;57.21;98730.53;4990218;28;8848;-80
2021/04/30 10:50:17;;;;;;;;;2.25;2.25;;;;;30.31;56.92;98728.25;4977688;28;8824;-76
2021/04/30 10:52:47;;;;;;;;;3.20;3.20;;;;;30.22;57.17;98736.88;4986100;28;8895;-77
2021/04/30 10:55:19;;;;;;;;;3.50;3.50;;;;;30.18;56.79;98738.84;4987983;28;8863;-80
2021/04/30 10:57:56;;;;;;;;;5.25;5.25;;;;;30.14;57.20;98729.91;4991890;28;8832;-80
2021/04/30 11:00:35;;;;;;;;;4.00;4.00;;;;;30.11;57.31;98728.00;4991388;28;8986;-81
2021/04/30 11:03:20;;;;;;;;;4.00;3.75;;;;;30.07;57.64;98733.44;4984657;28;8847;-81
2021/04/30 11:05:59;;;;;;;;;4.25;4.25;;;;;30.02;57.97;98735.81;4987330;28;8820;-81
2021/04/30 11:08:54;;;;;;;;;4.75;4.75;;;;;29.99;57.77;98731.13;4995605;28;8852;-81
2021/04/30 11:11:35;;;;;;;;;3.75;3.75;;;;;29.93;58.20;98732.72;4988445;28;8840;-80
2021/04/30 11:14:22;;;;;;;;;6.00;5.00;;;;;29.89;58.56;98732.00;4987806;28;8852;-81
2021/04/30 11:16:52;;;;;;;;;4.25;4.25;;;;;29.82;58.12;98733.56;4986835;28;9572;-80
2021/04/30 11:19:23;;;;;;;;;4.50;4.50;;;;;29.80;58.08;98735.13;4988111;28;8839;-81
2021/04/30 11:21:55;;;;;;;;;3.75;3.75;;;;;29.77;57.97;98736.69;4986501;28;8870;-82
2021/04/30 11:24:34;;;;;;;;;4.75;4.75;;;;;29.77;58.66;98735.94;4968282;28;9588;-81
2021/04/30 11:27:31;;;;;;;;;6.25;5.75;;;;;29.73;58.46;98743.31;4964389;28;8880;-79
2021/04/30 11:30:16;;;;;;;;;4.00;4.00;;;;;29.68;58.51;98747.22;4986603;28;8828;-82
2021/04/30 11:32:51;;;;;;;;;5.00;5.00;;;;;29.62;58.91;98748.03;4987694;28;8840;-80
2021/04/30 11:35:20;;;;;;;;;5.50;5.50;;;;;29.57;59.25;98754.63;4985362;28;8871;-80
2021/04/30 11:37:50;;;;;;;;;4.00;4.00;;;;;29.53;59.23;98754.66;4972919;28;8848;-78
2021/04/30 11:40:21;;;;;;;;;3.00;3.00;;;;;29.53;59.24;98770.19;4988049;28;8849;-78
2021/04/30 11:43:08;;;;;;;;;5.25;5.25;;;;;29.46;59.31;98767.47;4990406;28;8800;-77
2021/04/30 11:45:38;;;;;;;;;2.75;2.75;;;;;29.45;59.35;98780.28;4975771;28;8844;-78
2021/04/30 11:48:26;;;;;;;;;4.25;4.25;;;;;29.35;60.27;98772.13;4991818;28;9557;-77
2021/04/30 11:51:03;;;;;;;;;4.00;4.00;;;;;29.39;60.81;98779.09;4976109;28;8869;-81
2021/04/30 11:53:34;;;;;;;;;6.75;5.50;;;;;29.42;60.14;98793.88;4962758;28;8834;-81
2021/04/30 11:56:05;;;;;;;;;5.50;5.50;;;;;29.27;60.21;98776.81;4971621;28;8962;-85